Latest Weather Observations for Bankstown

IDN60801

Issued at 7:05 am EST Tuesday 2 September 2014 (issued every 30 minutes, with the page automatically refreshed every 10 minutes)

About weather observations | Map of weather stations | Latest weather observations for NSW | Other Formats
Station Details ID: 066137 Name: BANKSTOWN AIRPORT AWS Lat: -33.92 Lon: 150.99 Height: 6.5 m
Data from the previous 72 hours. | See also: Recent months at Bankstown
Date/Time
EST
Temp
°C
App
Temp
°C
Dew
Point
Rel
Hum
%
Delta-T
°C
Wind Press
QNH
hPa
Press
MSL
hPa
Rain
since 9 am
mm
Dir
 
Spd
km/h
Gust
km/h
Spd
kts
Gust
kts
02/07:00am 14.0 11.5 6.4 60 3.7 NNW 9 11 5 6 1009.6 1009.6 0.0
02/06:30am 14.1 11.5 6.0 58 3.9 NNW 9 11 5 6 1009.3 - 0.0
02/06:00am 15.0 12.8 5.2 52 4.6 WNW 6 9 3 5 1008.9 1008.9 0.0
02/05:30am 15.2 11.7 5.4 52 4.6 WSW 13 17 7 9 1009.0 - 0.0
02/05:00am 15.7 11.4 5.3 50 5.0 SW 17 22 9 12 1008.9 1008.9 0.0
02/04:30am 16.0 11.1 5.3 49 5.1 SW 20 35 11 19 1009.0 - 0.0
02/04:00am 15.7 12.7 6.2 53 4.6 SSW 11 17 6 9 1008.9 1008.9 0.0
02/03:30am 14.8 12.4 6.9 59 3.9 W 9 15 5 8 1008.7 - 0.0
02/03:00am 14.9 14.0 7.7 62 3.6 WSW 2 7 1 4 1008.7 1008.7 0.0
02/02:30am 14.4 12.0 8.6 68 2.9 WSW 11 17 6 9 1008.8 - 0.0
02/02:00am 14.4 14.1 8.6 68 2.9 CALM 0 0 0 0 1008.6 1008.6 0.0
02/01:30am 15.8 13.9 6.5 54 4.5 NNW 6 9 3 5 1008.9 - 0.0
02/01:00am 15.7 13.5 6.2 53 4.6 NNW 7 9 4 5 1009.2 1009.2 0.0
02/12:30am 16.7 14.3 5.3 47 5.5 NNW 7 11 4 6 1009.5 - 0.0
02/12:00am 16.9 14.1 5.2 46 5.6 N 9 13 5 7 1009.9 1009.9 0.0
 
Date/Time
EST
Temp
°C
App
Temp
°C
Dew
Point
Rel
Hum
%
Delta-T
°C
Wind Press
QNH
hPa
Press
MSL
hPa
Rain
since 9 am
mm
Dir
 
Spd
km/h
Gust
km/h
Spd
kts
Gust
kts
01/11:30pm 16.8 14.4 5.1 46 5.6 NNW 7 9 4 5 1010.4 - 0.0
01/11:00pm 17.2 14.9 5.5 46 5.7 N 7 9 4 5 1010.6 1010.6 0.0
01/10:30pm 17.8 15.0 5.1 43 6.1 N 9 13 5 7 1010.7 - 0.0
01/10:00pm 17.6 14.5 5.5 45 5.9 N 11 13 6 7 1010.8 1010.8 0.0
01/09:30pm 17.8 14.4 5.7 45 5.9 NNW 13 15 7 8 1011.2 - 0.0
01/09:00pm 17.4 13.5 5.4 45 5.8 NNW 15 17 8 9 1011.3 1011.3 0.0
01/08:30pm 18.0 14.4 5.2 43 6.2 NNW 13 15 7 8 1011.4 - 0.0
01/08:00pm 17.7 14.4 6.3 47 5.6 NW 13 20 7 11 1011.5 1011.5 0.0
01/07:30pm 15.7 13.8 7.7 59 4.0 N 7 9 4 5 1011.2 - 0.0
01/07:00pm 17.5 15.7 8.1 54 4.8 N 7 9 4 5 1011.1 1011.1 0.0
01/06:30pm 18.7 16.9 8.1 50 5.4 N 7 11 4 6 1010.9 - 0.0
01/06:00pm 20.0 17.5 8.0 46 6.2 NNE 11 15 6 8 1010.5 1010.5 0.0
01/05:30pm 21.3 18.9 5.2 35 8.0 NNW 7 9 4 5 1010.4 - 0.0
01/05:00pm 21.7 19.2 6.4 37 7.8 NNW 9 13 5 7 1010.3 1010.3 0.0
01/04:30pm 22.6 19.1 5.5 33 8.6 N 13 19 7 10 1010.2 - 0.0
01/04:00pm 23.4 19.8 4.9 30 9.2 N 13 17 7 9 1010.2 1010.2 0.0
01/03:30pm 22.9 19.4 5.3 32 8.8 NNW 13 17 7 9 1010.6 - 0.0
01/03:00pm 23.2 19.1 4.2 29 9.3 NNW 15 19 8 10 1010.5 1010.5 0.0
01/02:30pm 23.6 20.3 4.5 29 9.5 NNW 11 19 6 10 1010.8 - 0.0
01/02:00pm 23.0 20.1 4.5 30 9.1 N 9 19 5 10 1011.3 1011.3 0.0
01/01:30pm 22.6 20.4 6.0 34 8.4 WNW 7 17 4 9 1012.1 - 0.0
01/01:00pm 22.1 18.9 5.1 33 8.4 NNW 11 20 6 11 1012.6 1012.6 0.0
01/12:30pm 21.2 18.3 6.7 39 7.4 WNW 11 17 6 9 1013.3 - 0.0
01/12:00pm 21.1 18.3 7.0 40 7.2 WNW 11 17 6 9 1013.8 1013.8 0.0
01/11:30am 20.7 18.5 8.0 44 6.6 NNW 9 15 5 8 1014.1 - 0.0
01/11:00am 19.6 18.1 9.2 51 5.5 WNW 7 13 4 7 1014.7 1014.7 0.0
01/10:30am 18.1 16.2 9.2 56 4.7 NW 9 15 5 8 1015.4 - 0.0
01/10:00am 16.9 16.0 10.5 66 3.4 N 6 11 3 6 1016.0 1016.0 0.0
01/09:30am 14.9 13.3 10.3 74 2.4 W 9 11 5 6 1016.7 - 0.0
01/09:00am 13.3 11.8 10.7 84 1.4 WNW 9 11 5 6 1017.1 1017.1 0.0
01/08:30am 12.5 11.6 11.4 93 0.6 NW 7 9 4 5 1017.4 - 0.0
01/08:23am 12.3 11.4 11.2 93 0.6 NW 7 9 4 5 1017.5 - 0.0
01/08:00am 11.0 9.9 10.1 94 0.5 WSW 6 9 3 5 1017.6 1017.6 0.0
01/07:30am 10.1 9.9 9.2 94 0.4 CALM 0 0 0 0 1017.3 - 0.0
01/07:12am 9.8 9.6 8.9 94 0.4 CALM 0 0 0 0 1017.1 - 0.0
01/07:00am 9.1 8.7 8.2 94 0.4 CALM 0 0 0 0 1017.1 1017.1 0.0
01/06:56am 9.1 8.7 8.2 94 0.4 CALM 0 0 0 0 1017.1 - 0.0
01/06:41am 8.4 7.8 7.5 94 0.4 CALM 0 0 0 0 1017.0 - 0.0
01/06:30am 9.0 8.6 8.1 94 0.4 CALM 0 0 0 0 1017.0 - 0.0
01/06:22am 9.1 8.7 8.2 94 0.4 CALM 0 0 0 0 1017.0 - 0.0
01/06:00am 9.1 7.5 8.2 94 0.4 NNW 6 9 3 5 1016.9 1016.9 0.0
01/05:41am 9.0 6.9 8.1 94 0.4 NNW 9 9 5 5 1016.7 - 0.0
01/05:34am 9.2 7.1 8.3 94 0.4 NNW 9 9 5 5 1016.6 - 0.0
01/05:30am 9.2 7.1 8.3 94 0.4 N 9 11 5 6 1016.6 - 0.0
01/05:16am 9.4 7.7 8.5 94 0.4 NNW 7 9 4 5 1016.6 - 0.0
01/05:02am 8.7 6.9 7.8 94 0.4 N 7 9 4 5 1016.5 - 0.0
01/05:00am 9.0 7.2 8.1 94 0.4 N 7 9 4 5 1016.5 1016.5 0.0
01/04:30am 9.2 8.8 8.3 94 0.4 CALM 0 7 0 4 1016.3 - 0.0
01/04:25am 9.1 8.7 8.2 94 0.4 CALM 0 0 0 0 1016.3 - 0.0
01/04:17am 8.9 8.4 7.8 93 0.5 CALM 0 0 0 0 1016.2 - 0.0
01/04:00am 8.5 7.9 7.4 93 0.5 CALM 0 0 0 0 1016.2 1016.2 0.0
01/03:30am 8.3 7.6 7.1 92 0.6 CALM 0 0 0 0 1016.0 - 0.0
01/03:17am 8.7 8.1 7.5 92 0.6 CALM 0 0 0 0 1016.0 - 0.0
01/03:00am 8.9 8.4 7.8 93 0.5 CALM 0 0 0 0 1016.2 1016.2 0.0
01/02:30am 9.1 8.2 7.9 92 0.6 ESE 2 6 1 3 1016.7 - 0.0
01/02:04am 9.7 9.4 8.5 92 0.6 CALM 0 0 0 0 1016.9 - 0.0
01/02:00am 9.8 9.5 8.6 92 0.6 CALM 0 0 0 0 1016.9 1016.9 0.0
01/01:45am 9.3 8.9 8.1 92 0.6 CALM 0 0 0 0 1017.1 - 0.0
01/01:30am 10.4 10.2 9.2 92 0.6 CALM 0 0 0 0 1017.2 - 0.0
01/01:00am 10.3 10.1 9.1 92 0.6 CALM 0 0 0 0 1017.4 1017.4 0.0
01/12:53am 9.8 9.5 8.6 92 0.6 CALM 0 0 0 0 1017.5 - 0.0
01/12:30am 10.2 9.9 8.8 91 0.7 CALM 0 0 0 0 1017.6 - 0.0
01/12:29am 10.3 10.1 8.9 91 0.7 CALM 0 0 0 0 1017.6 - 0.0
01/12:00am 10.5 10.3 9.1 91 0.7 CALM 0 0 0 0 1018.0 1018.0 0.0
 
Date/Time
EST
Temp
°C
App
Temp
°C
Dew
Point
Rel
Hum
%
Delta-T
°C
Wind Press
QNH
hPa
Press
MSL
hPa
Rain
since 9 am
mm
Dir
 
Spd
km/h
Gust
km/h
Spd
kts
Gust
kts
31/11:43pm 11.0 10.9 9.6 91 0.7 CALM 0 0 0 0 1018.1 - 0.0
31/11:30pm 10.8 10.7 9.4 91 0.7 CALM 0 0 0 0 1018.2 - 0.0
31/11:19pm 10.2 9.9 8.6 90 0.8 CALM 0 0 0 0 1018.3 - 0.0
31/11:00pm 10.8 10.6 9.2 90 0.8 CALM 0 0 0 0 1018.3 1018.3 0.0
31/10:39pm 11.8 11.9 10.2 90 0.8 CALM 0 0 0 0 1018.3 - 0.0
31/10:30pm 11.8 11.9 10.2 90 0.8 CALM 0 0 0 0 1018.3 - 0.0
31/10:20pm 11.1 11.0 9.4 89 0.9 CALM 0 0 0 0 1018.4 - 0.0
31/10:00pm 12.1 12.3 10.5 90 0.8 CALM 0 0 0 0 1018.4 1018.4 0.0
31/09:30pm 11.9 12.0 10.1 89 0.9 CALM 0 0 0 0 1018.4 - 0.0
31/09:00pm 12.6 12.9 10.8 89 0.9 CALM 0 0 0 0 1018.4 1018.4 0.0
31/08:30pm 12.2 11.1 9.9 86 1.2 ESE 6 7 3 4 1018.4 - 0.0
31/08:00pm 13.3 13.4 10.1 81 1.6 CALM 0 0 0 0 1018.3 1018.3 0.0
31/07:30pm 14.8 14.0 11.0 78 2.0 ESE 6 7 3 4 1018.1 - 0.0
31/07:00pm 15.6 14.9 11.4 76 2.3 E 6 9 3 5 1017.8 1017.8 0.0
31/06:30pm 15.9 14.6 11.1 73 2.6 E 9 13 5 7 1017.4 - 0.0
31/06:00pm 16.4 14.2 10.7 69 3.0 E 13 19 7 10 1017.3 1017.3 0.0
31/05:30pm 17.1 14.9 10.7 66 3.4 E 13 20 7 11 1017.0 - 0.0
31/05:00pm 17.8 14.1 9.4 58 4.4 E 19 22 10 12 1016.9 1016.9 0.0
31/04:30pm 18.5 14.7 9.8 57 4.6 E 20 24 11 13 1016.9 - 0.0
31/04:00pm 19.0 15.0 10.3 57 4.7 E 22 28 12 15 1016.8 1016.8 0.0
31/03:30pm 19.9 16.2 10.3 54 5.2 E 20 26 11 14 1016.8 - 0.0
31/03:00pm 20.7 17.0 10.2 51 5.7 SE 20 24 11 13 1016.8 1016.8 0.0
31/02:30pm 20.5 17.9 9.4 49 5.9 SE 13 19 7 10 1017.1 - 0.0
31/02:00pm 21.2 19.5 7.4 41 7.1 W 6 13 3 7 1017.4 1017.4 0.0
31/01:30pm 20.9 19.3 7.9 43 6.7 NW 6 9 3 5 1017.9 - 0.0
31/01:00pm 20.1 18.6 8.4 47 6.1 SE 6 11 3 6 1018.3 1018.3 0.0
31/12:30pm 19.3 17.4 7.7 47 5.9 SSW 7 11 4 6 1018.8 - 0.0
31/12:00pm 19.0 16.6 8.6 51 5.4 SW 11 20 6 11 1019.4 1019.4 0.0
31/11:30am 18.9 17.1 9.4 54 5.0 SSW 9 19 5 10 1019.8 - 0.0
31/11:00am 17.8 15.4 8.6 55 4.7 SW 11 20 6 11 1020.2 1020.2 0.0
31/10:30am 17.3 14.2 9.0 58 4.3 WSW 15 20 8 11 1020.7 - 0.0
31/10:00am 16.5 13.7 8.7 60 4.0 WSW 13 20 7 11 1020.9 1020.9 0.0
31/09:30am 15.7 11.8 8.7 63 3.6 WSW 19 22 10 12 1021.2 - 0.0
31/09:00am 15.2 11.8 9.1 67 3.1 SW 17 24 9 13 1021.4 1021.4 0.0
31/08:30am 13.6 11.1 8.4 71 2.6 WSW 11 17 6 9 1021.6 - 0.0
31/08:00am 12.6 10.9 8.5 76 2.0 WSW 7 11 4 6 1021.5 1021.5 0.0
31/07:30am 11.2 10.8 8.2 82 1.5 CALM 0 0 0 0 1021.3 - 0.0
31/07:00am 10.8 9.0 8.0 83 1.4 WSW 7 9 4 5 1021.3 1021.3 0.0
31/06:30am 10.5 8.9 8.1 85 1.2 WSW 6 9 3 5 1021.2 - 0.0
31/06:00am 10.1 8.5 8.0 87 1.0 WSW 6 7 3 4 1021.0 1021.0 0.0
31/05:30am 9.8 8.2 7.9 88 0.9 WSW 6 7 3 4 1020.8 - 0.0
31/05:00am 9.1 8.4 6.9 86 1.0 CALM 0 0 0 0 1020.7 1020.7 0.0
31/04:30am 9.5 8.9 7.3 86 1.0 CALM 0 0 0 0 1020.7 - 0.0
31/04:00am 9.6 9.0 7.2 85 1.1 CALM 0 6 0 3 1020.7 1020.7 0.0
31/03:30am 9.9 7.6 7.5 85 1.1 SW 9 11 5 6 1020.7 - 0.0
31/03:00am 9.9 8.2 7.5 85 1.1 WSW 6 11 3 6 1020.9 1020.9 0.0
31/02:30am 10.1 8.2 7.5 84 1.2 WSW 7 9 4 5 1020.9 - 0.0
31/02:00am 10.4 8.6 7.3 81 1.5 SW 6 7 3 4 1021.1 1021.1 0.0
31/01:30am 11.2 9.4 7.9 80 1.6 SW 7 9 4 5 1021.4 - 0.0
31/01:00am 11.9 9.8 8.4 79 1.7 SW 9 13 5 7 1021.5 1021.5 0.0
31/12:30am 12.3 10.6 8.4 77 1.9 WSW 7 9 4 5 1021.6 - 0.0
31/12:00am 12.9 10.9 8.6 75 2.1 SW 9 13 5 7 1021.7 1021.7 0.0
 
Date/Time
EST
Temp
°C
App
Temp
°C
Dew
Point
Rel
Hum
%
Delta-T
°C
Wind Press
QNH
hPa
Press
MSL
hPa
Rain
since 9 am
mm
Dir
 
Spd
km/h
Gust
km/h
Spd
kts
Gust
kts
30/11:30pm 13.6 11.3 8.9 73 2.4 WSW 11 15 6 8 1022.0 - 0.0
30/11:00pm 13.6 11.3 8.9 73 2.4 SW 11 15 6 8 1022.1 1022.1 0.0
30/10:30pm 13.9 11.2 8.9 72 2.5 SW 13 17 7 9 1022.1 - 0.0
30/10:00pm 14.0 12.1 9.0 72 2.5 SW 9 15 5 8 1022.3 1022.3 0.0
30/09:30pm 14.0 11.7 9.0 72 2.5 S 11 15 6 8 1022.4 - 0.0
30/09:00pm 14.3 12.1 9.3 72 2.5 SSW 11 17 6 9 1022.5 1022.5 0.0
30/08:30pm 14.5 12.7 9.5 72 2.6 SSW 9 13 5 7 1022.6 - 0.0
30/08:00pm 14.6 12.1 9.6 72 2.6 SSW 13 15 7 8 1022.6 1022.6 0.0
30/07:30pm 14.6 12.5 9.8 73 2.5 SW 11 15 6 8 1022.4 - 0.0
30/07:00pm 14.8 12.4 10.0 73 2.5 SSW 13 19 7 10 1022.3 1022.3 0.0
30/06:30pm 14.7 11.9 9.9 73 2.5 SSW 15 24 8 13 1022.1 - 0.0
30/06:00pm 15.0 12.3 10.2 73 2.5 SSW 15 20 8 11 1022.1 1022.1 0.0
30/05:30pm 15.0 11.6 10.4 74 2.4 S 19 24 10 13 1022.1 - 0.0
30/05:00pm 15.3 11.7 10.7 74 2.4 S 20 26 11 14 1021.9 1021.9 0.0
30/04:30pm 16.1 13.6 11.1 72 2.7 SSW 15 19 8 10 1021.8 - 0.0
30/04:00pm 15.9 13.6 11.9 77 2.2 SW 15 19 8 10 1021.9 1021.9 0.0
30/03:30pm 16.1 12.6 10.8 71 2.8 S 20 26 11 14 1022.1 - 0.0
30/03:00pm 16.6 13.1 10.2 66 3.4 S 19 32 10 17 1021.8 1021.8 0.0
30/02:30pm 16.6 13.1 10.9 69 3.1 S 20 37 11 20 1022.0 - 0.0
30/02:00pm 16.9 10.9 10.1 64 3.6 S 32 41 17 22 1022.3 1022.3 0.0
30/01:30pm 17.2 12.9 10.6 65 3.5 SSW 24 33 13 18 1022.4 - 0.0
30/01:00pm 17.1 12.7 10.5 65 3.5 S 24 35 13 19 1022.5 1022.5 0.0
30/12:30pm 16.8 11.4 10.9 68 3.2 S 30 39 16 21 1022.8 - 0.0
30/12:00pm 15.8 12.4 11.2 74 2.5 S 20 33 11 18 1023.2 1023.2 0.0
30/11:30am 15.1 10.6 11.3 78 2.0 S 26 33 14 18 1023.6 - 0.0
30/11:00am 15.1 10.5 11.1 77 2.1 S 26 35 14 19 1023.8 1023.8 0.0
30/10:30am 15.8 11.1 10.6 71 2.8 S 26 39 14 21 1023.9 - 0.0
30/10:00am 14.6 9.2 10.8 78 2.0 S 30 39 16 21 1023.9 1023.9 0.0
30/09:55am 14.4 9.2 10.4 77 2.1 S 28 37 15 20 1023.9 - 0.0
30/09:30am 14.4 11.2 8.6 68 2.9 SW 15 19 8 10 1023.9 - 0.0
30/09:00am 13.6 10.4 8.4 71 2.6 SW 15 24 8 13 1024.0 1024.0 0.0
30/08:30am 12.7 9.5 8.6 76 2.0 WSW 15 19 8 10 1024.2 - 0.0
30/08:15am 12.2 9.1 8.7 79 1.7 WSW 15 20 8 11 1024.3 - 0.0
30/08:00am 11.8 9.0 8.5 80 1.6 SW 13 17 7 9 1024.5 1024.5 0.0
30/07:44am 12.2 8.9 7.9 75 2.1 SW 15 20 8 11 1024.3 - 0.0
30/07:30am 12.8 9.4 7.5 70 2.6 SW 15 19 8 10 1024.2 - 0.0

Other Formats:

Comma delimited format used in spreadsheet applications
http://www.bom.gov.au/fwo/IDN60801/IDN60801.94765.axf

JavaScript Object Notation format (JSON) in row-major order
http://www.bom.gov.au/fwo/IDN60801/IDN60801.94765.json